sensor_id;sensor_type;location;lat;lon;timestamp;temperature;humidity
8043;DHT22;4064;48.132;11.366;2023-01-19T00:00:06;-0.80;99.90
8043;DHT22;4064;48.132;11.366;2023-01-19T00:02:33;-0.80;99.90
8043;DHT22;4064;48.132;11.366;2023-01-19T00:04:58;-0.80;99.90
8043;DHT22;4064;48.132;11.366;2023-01-19T00:07:24;-0.80;99.90
8043;DHT22;4064;48.132;11.366;2023-01-19T00:09:50;-0.80;99.90
8043;DHT22;4064;48.132;11.366;2023-01-19T00:12:15;-0.70;99.90
8043;DHT22;4064;48.132;11.366;2023-01-19T00:14:41;-0.70;99.90
8043;DHT22;4064;48.132;11.366;2023-01-19T00:17:07;-0.80;99.90
8043;DHT22;4064;48.132;11.366;2023-01-19T00:19:32;-0.70;99.90
8043;DHT22;4064;48.132;11.366;2023-01-19T00:21:58;-0.80;99.90
8043;DHT22;4064;48.132;11.366;2023-01-19T00:24:23;-0.70;99.90
8043;DHT22;4064;48.132;11.366;2023-01-19T00:26:49;-0.70;99.90
8043;DHT22;4064;48.132;11.366;2023-01-19T00:29:15;-0.80;99.90
8043;DHT22;4064;48.132;11.366;2023-01-19T00:31:40;-0.80;99.90
8043;DHT22;4064;48.132;11.366;2023-01-19T00:34:06;-0.80;99.90
8043;DHT22;4064;48.132;11.366;2023-01-19T00:36:33;-0.80;99.90
8043;DHT22;4064;48.132;11.366;2023-01-19T00:38:59;-0.80;99.90
8043;DHT22;4064;48.132;11.366;2023-01-19T00:41:25;-0.80;99.90
8043;DHT22;4064;48.132;11.366;2023-01-19T00:44:10;-0.80;99.90
8043;DHT22;4064;48.132;11.366;2023-01-19T00:46:37;-0.80;99.90
8043;DHT22;4064;48.132;11.366;2023-01-19T00:49:02;-0.80;99.90
8043;DHT22;4064;48.132;11.366;2023-01-19T00:51:28;-0.80;99.90
8043;DHT22;4064;48.132;11.366;2023-01-19T00:53:53;-0.90;99.90
8043;DHT22;4064;48.132;11.366;2023-01-19T00:56:19;-0.80;99.90
8043;DHT22;4064;48.132;11.366;2023-01-19T00:58:45;-0.80;99.90
8043;DHT22;4064;48.132;11.366;2023-01-19T01:01:10;-0.90;99.90
8043;DHT22;4064;48.132;11.366;2023-01-19T01:03:36;-0.90;99.90
8043;DHT22;4064;48.132;11.366;2023-01-19T01:06:03;-0.90;99.90
8043;DHT22;4064;48.132;11.366;2023-01-19T01:08:31;-0.90;99.90
8043;DHT22;4064;48.132;11.366;2023-01-19T01:10:57;-0.90;99.90
8043;DHT22;4064;48.132;11.366;2023-01-19T01:13:23;-1.00;99.90
8043;DHT22;4064;48.132;11.366;2023-01-19T01:15:50;-0.90;99.90
8043;DHT22;4064;48.132;11.366;2023-01-19T01:18:16;-0.90;99.90
8043;DHT22;4064;48.132;11.366;2023-01-19T01:20:42;-0.90;99.90
8043;DHT22;4064;48.132;11.366;2023-01-19T01:23:07;-1.00;99.90
8043;DHT22;4064;48.132;11.366;2023-01-19T01:25:33;-1.00;99.90
8043;DHT22;4064;48.132;11.366;2023-01-19T01:28:02;-1.00;99.90
8043;DHT22;4064;48.132;11.366;2023-01-19T01:30:30;-1.00;99.90
8043;DHT22;4064;48.132;11.366;2023-01-19T01:32:56;-1.00;99.90
8043;DHT22;4064;48.132;11.366;2023-01-19T01:35:21;-1.00;99.90
8043;DHT22;4064;48.132;11.366;2023-01-19T01:37:47;-1.10;99.90
8043;DHT22;4064;48.132;11.366;2023-01-19T01:40:16;-1.10;99.90
8043;DHT22;4064;48.132;11.366;2023-01-19T01:42:42;-1.10;99.90
8043;DHT22;4064;48.132;11.366;2023-01-19T01:45:32;-1.10;99.90
8043;DHT22;4064;48.132;11.366;2023-01-19T01:48:14;-1.20;99.90
8043;DHT22;4064;48.132;11.366;2023-01-19T01:51:03;-1.20;99.90
8043;DHT22;4064;48.132;11.366;2023-01-19T01:54:04;-1.20;99.90
8043;DHT22;4064;48.132;11.366;2023-01-19T01:56:46;-1.10;99.90
8043;DHT22;4064;48.132;11.366;2023-01-19T02:02:01;-1.20;99.90
8043;DHT22;4064;48.132;11.366;2023-01-19T02:04:51;-1.30;99.90
8043;DHT22;4064;48.132;11.366;2023-01-19T02:07:42;-1.30;99.90
8043;DHT22;4064;48.132;11.366;2023-01-19T02:10:29;-1.30;99.90
8043;DHT22;4064;48.132;11.366;2023-01-19T02:13:14;-1.30;99.90
8043;DHT22;4064;48.132;11.366;2023-01-19T02:15:50;-1.30;99.90
8043;DHT22;4064;48.132;11.366;2023-01-19T02:18:18;-1.30;99.90
8043;DHT22;4064;48.132;11.366;2023-01-19T02:23:44;-1.30;99.90
8043;DHT22;4064;48.132;11.366;2023-01-19T02:26:26;-1.20;99.90
8043;DHT22;4064;48.132;11.366;2023-01-19T02:28:54;-1.30;99.90
8043;DHT22;4064;48.132;11.366;2023-01-19T02:31:22;-1.30;99.90
8043;DHT22;4064;48.132;11.366;2023-01-19T02:33:48;-1.40;99.90
8043;DHT22;4064;48.132;11.366;2023-01-19T02:36:15;-1.40;99.90
8043;DHT22;4064;48.132;11.366;2023-01-19T02:38:43;-1.40;99.90
8043;DHT22;4064;48.132;11.366;2023-01-19T02:41:13;-1.30;99.90
8043;DHT22;4064;48.132;11.366;2023-01-19T02:43:40;-1.40;99.90
8043;DHT22;4064;48.132;11.366;2023-01-19T02:46:07;-1.40;99.90
8043;DHT22;4064;48.132;11.366;2023-01-19T02:48:33;-1.40;99.90
8043;DHT22;4064;48.132;11.366;2023-01-19T02:51:15;-1.40;99.90
8043;DHT22;4064;48.132;11.366;2023-01-19T02:59:09;-1.40;99.90
8043;DHT22;4064;48.132;11.366;2023-01-19T03:04:31;-1.50;99.90
8043;DHT22;4064;48.132;11.366;2023-01-19T03:07:09;-1.50;99.90
8043;DHT22;4064;48.132;11.366;2023-01-19T03:09:49;-1.50;99.90
8043;DHT22;4064;48.132;11.366;2023-01-19T03:14:58;-1.50;99.90
8043;DHT22;4064;48.132;11.366;2023-01-19T03:17:26;-1.60;99.90
8043;DHT22;4064;48.132;11.366;2023-01-19T03:19:54;-1.60;99.90
8043;DHT22;4064;48.132;11.366;2023-01-19T03:22:24;-1.60;99.90
8043;DHT22;4064;48.132;11.366;2023-01-19T03:24:54;-1.60;99.90
8043;DHT22;4064;48.132;11.366;2023-01-19T03:27:25;-1.60;99.90
8043;DHT22;4064;48.132;11.366;2023-01-19T03:29:57;-1.70;99.90
8043;DHT22;4064;48.132;11.366;2023-01-19T03:32:29;-1.70;99.90
8043;DHT22;4064;48.132;11.366;2023-01-19T03:34:59;-1.70;99.90
8043;DHT22;4064;48.132;11.366;2023-01-19T03:37:26;-1.80;99.90
8043;DHT22;4064;48.132;11.366;2023-01-19T03:39:52;-1.80;99.90
8043;DHT22;4064;48.132;11.366;2023-01-19T03:42:19;-1.80;99.90
8043;DHT22;4064;48.132;11.366;2023-01-19T03:44:45;-1.80;99.90
8043;DHT22;4064;48.132;11.366;2023-01-19T03:47:15;-1.80;99.90
8043;DHT22;4064;48.132;11.366;2023-01-19T03:49:43;-1.90;99.90
8043;DHT22;4064;48.132;11.366;2023-01-19T03:52:10;-1.90;99.90
8043;DHT22;4064;48.132;11.366;2023-01-19T03:54:35;-1.90;99.90
8043;DHT22;4064;48.132;11.366;2023-01-19T03:57:01;-1.90;99.90
8043;DHT22;4064;48.132;11.366;2023-01-19T03:59:27;-1.80;99.90
8043;DHT22;4064;48.132;11.366;2023-01-19T04:01:52;-1.80;99.90
8043;DHT22;4064;48.132;11.366;2023-01-19T04:04:18;-1.70;99.90
8043;DHT22;4064;48.132;11.366;2023-01-19T04:06:43;-1.70;99.90
8043;DHT22;4064;48.132;11.366;2023-01-19T04:09:09;-1.70;99.90
8043;DHT22;4064;48.132;11.366;2023-01-19T04:11:35;-1.70;99.90
8043;DHT22;4064;48.132;11.366;2023-01-19T04:14:01;-1.70;99.90
8043;DHT22;4064;48.132;11.366;2023-01-19T04:16:26;-1.80;99.90
8043;DHT22;4064;48.132;11.366;2023-01-19T04:18:53;-1.80;99.90
8043;DHT22;4064;48.132;11.366;2023-01-19T04:21:19;-1.90;99.90
8043;DHT22;4064;48.132;11.366;2023-01-19T04:23:45;-2.00;99.90
8043;DHT22;4064;48.132;11.366;2023-01-19T04:26:11;-2.00;99.90
8043;DHT22;4064;48.132;11.366;2023-01-19T04:28:37;-2.10;99.90
8043;DHT22;4064;48.132;11.366;2023-01-19T04:31:04;-2.20;99.90
8043;DHT22;4064;48.132;11.366;2023-01-19T04:33:29;-2.20;99.90
8043;DHT22;4064;48.132;11.366;2023-01-19T04:35:55;-2.30;99.90
8043;DHT22;4064;48.132;11.366;2023-01-19T04:38:22;-2.30;99.90
8043;DHT22;4064;48.132;11.366;2023-01-19T04:40:48;-2.40;99.90
8043;DHT22;4064;48.132;11.366;2023-01-19T04:43:15;-2.40;99.90
8043;DHT22;4064;48.132;11.366;2023-01-19T04:45:41;-2.50;99.90
8043;DHT22;4064;48.132;11.366;2023-01-19T04:48:09;-2.60;99.90
8043;DHT22;4064;48.132;11.366;2023-01-19T04:50:35;-2.60;99.90
8043;DHT22;4064;48.132;11.366;2023-01-19T04:53:00;-2.60;99.90
8043;DHT22;4064;48.132;11.366;2023-01-19T04:55:26;-2.60;99.90
8043;DHT22;4064;48.132;11.366;2023-01-19T04:57:52;-2.60;99.90
8043;DHT22;4064;48.132;11.366;2023-01-19T05:00:18;-2.60;99.90
8043;DHT22;4064;48.132;11.366;2023-01-19T05:02:45;-2.60;99.90
8043;DHT22;4064;48.132;11.366;2023-01-19T05:05:11;-2.70;99.90
8043;DHT22;4064;48.132;11.366;2023-01-19T05:07:37;-2.70;99.90
8043;DHT22;4064;48.132;11.366;2023-01-19T05:10:04;-2.70;99.90
8043;DHT22;4064;48.132;11.366;2023-01-19T05:12:29;-2.80;99.90
8043;DHT22;4064;48.132;11.366;2023-01-19T05:14:55;-2.90;99.90
8043;DHT22;4064;48.132;11.366;2023-01-19T05:17:21;-2.90;99.90
8043;DHT22;4064;48.132;11.366;2023-01-19T05:19:46;-2.90;99.90
8043;DHT22;4064;48.132;11.366;2023-01-19T05:22:13;-3.00;99.90
8043;DHT22;4064;48.132;11.366;2023-01-19T05:24:39;-3.00;99.90
8043;DHT22;4064;48.132;11.366;2023-01-19T05:27:05;-2.90;99.90
8043;DHT22;4064;48.132;11.366;2023-01-19T05:29:30;-2.90;99.90
8043;DHT22;4064;48.132;11.366;2023-01-19T05:31:56;-3.00;99.90
8043;DHT22;4064;48.132;11.366;2023-01-19T05:34:22;-3.00;99.90
8043;DHT22;4064;48.132;11.366;2023-01-19T05:36:48;-3.10;99.90
8043;DHT22;4064;48.132;11.366;2023-01-19T05:39:13;-3.10;99.90
8043;DHT22;4064;48.132;11.366;2023-01-19T05:41:39;-3.10;99.90
8043;DHT22;4064;48.132;11.366;2023-01-19T05:44:06;-3.20;99.90
8043;DHT22;4064;48.132;11.366;2023-01-19T05:46:32;-3.20;99.90
8043;DHT22;4064;48.132;11.366;2023-01-19T05:48:58;-3.20;99.90
8043;DHT22;4064;48.132;11.366;2023-01-19T05:51:26;-3.20;99.90
8043;DHT22;4064;48.132;11.366;2023-01-19T05:53:56;-3.20;99.90
8043;DHT22;4064;48.132;11.366;2023-01-19T05:56:21;-3.10;99.90
8043;DHT22;4064;48.132;11.366;2023-01-19T05:58:47;-3.20;99.90
8043;DHT22;4064;48.132;11.366;2023-01-19T06:01:12;-3.20;99.90
8043;DHT22;4064;48.132;11.366;2023-01-19T06:03:38;-3.20;99.90
8043;DHT22;4064;48.132;11.366;2023-01-19T06:06:04;-3.20;99.90
8043;DHT22;4064;48.132;11.366;2023-01-19T06:08:29;-3.20;99.90
8043;DHT22;4064;48.132;11.366;2023-01-19T06:10:55;-3.20;99.90
8043;DHT22;4064;48.132;11.366;2023-01-19T06:13:21;-3.20;99.90
8043;DHT22;4064;48.132;11.366;2023-01-19T06:15:47;-3.20;99.90
8043;DHT22;4064;48.132;11.366;2023-01-19T06:18:13;-3.20;99.90
8043;DHT22;4064;48.132;11.366;2023-01-19T06:20:41;-3.20;99.90
8043;DHT22;4064;48.132;11.366;2023-01-19T06:23:07;-3.20;99.90
8043;DHT22;4064;48.132;11.366;2023-01-19T06:25:33;-3.20;99.90
8043;DHT22;4064;48.132;11.366;2023-01-19T06:27:58;-3.30;99.90
8043;DHT22;4064;48.132;11.366;2023-01-19T06:30:24;-3.20;99.90
8043;DHT22;4064;48.132;11.366;2023-01-19T06:32:52;-3.20;99.90
8043;DHT22;4064;48.132;11.366;2023-01-19T06:35:17;-3.20;99.90
8043;DHT22;4064;48.132;11.366;2023-01-19T06:37:43;-3.30;99.90
8043;DHT22;4064;48.132;11.366;2023-01-19T06:40:09;-3.20;99.90
8043;DHT22;4064;48.132;11.366;2023-01-19T06:42:36;-3.20;99.90
8043;DHT22;4064;48.132;11.366;2023-01-19T06:45:01;-3.20;99.90
8043;DHT22;4064;48.132;11.366;2023-01-19T06:47:28;-3.20;99.90
8043;DHT22;4064;48.132;11.366;2023-01-19T06:49:54;-3.30;99.90
8043;DHT22;4064;48.132;11.366;2023-01-19T06:52:20;-3.30;99.90
8043;DHT22;4064;48.132;11.366;2023-01-19T06:54:46;-3.40;99.90
8043;DHT22;4064;48.132;11.366;2023-01-19T06:57:12;-3.40;99.90
8043;DHT22;4064;48.132;11.366;2023-01-19T06:59:38;-3.50;99.90
8043;DHT22;4064;48.132;11.366;2023-01-19T07:02:04;-3.50;99.90
8043;DHT22;4064;48.132;11.366;2023-01-19T07:04:30;-3.50;99.90
8043;DHT22;4064;48.132;11.366;2023-01-19T07:06:56;-3.50;99.90
8043;DHT22;4064;48.132;11.366;2023-01-19T07:09:21;-3.50;99.90
8043;DHT22;4064;48.132;11.366;2023-01-19T07:11:49;-3.50;99.90
8043;DHT22;4064;48.132;11.366;2023-01-19T07:14:14;-3.50;99.90
8043;DHT22;4064;48.132;11.366;2023-01-19T07:16:41;-3.50;99.90
8043;DHT22;4064;48.132;11.366;2023-01-19T07:19:06;-3.50;99.90
8043;DHT22;4064;48.132;11.366;2023-01-19T07:21:35;-3.50;99.90
8043;DHT22;4064;48.132;11.366;2023-01-19T07:24:00;-3.50;99.90
8043;DHT22;4064;48.132;11.366;2023-01-19T07:26:26;-3.50;99.90
8043;DHT22;4064;48.132;11.366;2023-01-19T07:28:52;-3.50;99.90
8043;DHT22;4064;48.132;11.366;2023-01-19T07:31:18;-3.50;99.90
8043;DHT22;4064;48.132;11.366;2023-01-19T07:33:44;-3.40;99.90
8043;DHT22;4064;48.132;11.366;2023-01-19T07:36:10;-3.40;99.90
8043;DHT22;4064;48.132;11.366;2023-01-19T07:38:36;-3.40;99.90
8043;DHT22;4064;48.132;11.366;2023-01-19T07:41:05;-3.40;99.90
8043;DHT22;4064;48.132;11.366;2023-01-19T07:43:32;-3.40;99.90
8043;DHT22;4064;48.132;11.366;2023-01-19T07:45:59;-3.30;99.90
8043;DHT22;4064;48.132;11.366;2023-01-19T07:48:25;-3.30;99.90
8043;DHT22;4064;48.132;11.366;2023-01-19T07:50:51;-3.30;99.90
8043;DHT22;4064;48.132;11.366;2023-01-19T07:53:17;-3.30;99.90
8043;DHT22;4064;48.132;11.366;2023-01-19T07:55:43;-3.20;99.90
8043;DHT22;4064;48.132;11.366;2023-01-19T07:58:08;-3.20;99.90
8043;DHT22;4064;48.132;11.366;2023-01-19T08:00:36;-3.20;99.90
8043;DHT22;4064;48.132;11.366;2023-01-19T08:03:03;-3.20;99.90
8043;DHT22;4064;48.132;11.366;2023-01-19T08:05:30;-3.20;99.90
8043;DHT22;4064;48.132;11.366;2023-01-19T08:07:57;-3.10;99.90
8043;DHT22;4064;48.132;11.366;2023-01-19T08:10:24;-3.00;99.90
8043;DHT22;4064;48.132;11.366;2023-01-19T08:12:52;-3.00;99.90
8043;DHT22;4064;48.132;11.366;2023-01-19T08:15:18;-2.90;99.90
8043;DHT22;4064;48.132;11.366;2023-01-19T08:17:43;-2.80;99.90
8043;DHT22;4064;48.132;11.366;2023-01-19T08:20:09;-2.70;99.90
8043;DHT22;4064;48.132;11.366;2023-01-19T08:22:35;-2.70;99.90
8043;DHT22;4064;48.132;11.366;2023-01-19T08:25:01;-2.60;99.90
8043;DHT22;4064;48.132;11.366;2023-01-19T08:27:27;-2.60;99.90
8043;DHT22;4064;48.132;11.366;2023-01-19T08:29:53;-2.50;99.90
8043;DHT22;4064;48.132;11.366;2023-01-19T08:32:19;-2.40;99.90
8043;DHT22;4064;48.132;11.366;2023-01-19T08:34:44;-2.40;99.90
8043;DHT22;4064;48.132;11.366;2023-01-19T08:37:10;-2.30;99.90
8043;DHT22;4064;48.132;11.366;2023-01-19T08:39:35;-2.20;99.90
8043;DHT22;4064;48.132;11.366;2023-01-19T08:42:01;-2.20;99.90
8043;DHT22;4064;48.132;11.366;2023-01-19T08:44:27;-2.10;99.90
8043;DHT22;4064;48.132;11.366;2023-01-19T08:46:52;-1.90;99.90
8043;DHT22;4064;48.132;11.366;2023-01-19T08:49:19;-1.80;99.90
8043;DHT22;4064;48.132;11.366;2023-01-19T08:51:45;-1.70;99.90
8043;DHT22;4064;48.132;11.366;2023-01-19T08:54:11;-1.70;99.90
8043;DHT22;4064;48.132;11.366;2023-01-19T08:56:37;-1.60;99.90
8043;DHT22;4064;48.132;11.366;2023-01-19T08:59:03;-1.50;99.90
8043;DHT22;4064;48.132;11.366;2023-01-19T09:01:28;-1.40;99.90
8043;DHT22;4064;48.132;11.366;2023-01-19T09:03:54;-1.40;99.90
8043;DHT22;4064;48.132;11.366;2023-01-19T09:06:20;-1.40;99.90
8043;DHT22;4064;48.132;11.366;2023-01-19T09:08:46;-1.40;99.90
8043;DHT22;4064;48.132;11.366;2023-01-19T09:11:14;-1.30;99.90
8043;DHT22;4064;48.132;11.366;2023-01-19T09:13:40;-1.20;99.90
8043;DHT22;4064;48.132;11.366;2023-01-19T09:16:07;-1.20;99.90
8043;DHT22;4064;48.132;11.366;2023-01-19T09:18:34;-1.10;99.90
8043;DHT22;4064;48.132;11.366;2023-01-19T09:21:00;-1.00;99.90
8043;DHT22;4064;48.132;11.366;2023-01-19T09:23:26;-0.90;99.90
8043;DHT22;4064;48.132;11.366;2023-01-19T09:25:57;-0.90;99.90
8043;DHT22;4064;48.132;11.366;2023-01-19T09:28:24;-0.80;99.90
8043;DHT22;4064;48.132;11.366;2023-01-19T09:30:50;-0.70;99.90
8043;DHT22;4064;48.132;11.366;2023-01-19T09:33:17;-0.70;99.90
8043;DHT22;4064;48.132;11.366;2023-01-19T09:35:44;-0.70;99.90
8043;DHT22;4064;48.132;11.366;2023-01-19T09:38:10;-0.60;99.90
8043;DHT22;4064;48.132;11.366;2023-01-19T09:40:41;-0.60;99.90
8043;DHT22;4064;48.132;11.366;2023-01-19T09:43:16;-0.60;99.90
8043;DHT22;4064;48.132;11.366;2023-01-19T09:45:48;-0.60;99.90
8043;DHT22;4064;48.132;11.366;2023-01-19T09:48:27;-0.50;99.90
8043;DHT22;4064;48.132;11.366;2023-01-19T09:50:57;-0.60;99.90
8043;DHT22;4064;48.132;11.366;2023-01-19T09:53:39;-0.60;99.90
8043;DHT22;4064;48.132;11.366;2023-01-19T09:56:19;-0.60;99.90
8043;DHT22;4064;48.132;11.366;2023-01-19T09:58:46;-0.50;99.90
8043;DHT22;4064;48.132;11.366;2023-01-19T10:03:57;-0.30;99.90
8043;DHT22;4064;48.132;11.366;2023-01-19T10:06:28;-0.10;99.90
8043;DHT22;4064;48.132;11.366;2023-01-19T10:09:00;0.10;99.90
8043;DHT22;4064;48.132;11.366;2023-01-19T10:11:49;0.20;99.90
8043;DHT22;4064;48.132;11.366;2023-01-19T10:14:24;0.40;99.90
8043;DHT22;4064;48.132;11.366;2023-01-19T10:17:24;0.60;99.90
8043;DHT22;4064;48.132;11.366;2023-01-19T10:19:54;0.80;99.90
8043;DHT22;4064;48.132;11.366;2023-01-19T10:22:24;0.90;99.90
8043;DHT22;4064;48.132;11.366;2023-01-19T10:25:01;1.10;99.90
8043;DHT22;4064;48.132;11.366;2023-01-19T10:27:31;1.20;99.90
8043;DHT22;4064;48.132;11.366;2023-01-19T10:29:59;1.40;99.90
8043;DHT22;4064;48.132;11.366;2023-01-19T10:32:28;1.40;99.90
8043;DHT22;4064;48.132;11.366;2023-01-19T10:34:54;1.50;99.90
8043;DHT22;4064;48.132;11.366;2023-01-19T10:37:32;1.50;99.90
8043;DHT22;4064;48.132;11.366;2023-01-19T10:42:41;1.30;99.60
8043;DHT22;4064;48.132;11.366;2023-01-19T10:47:43;1.30;99.90
8043;DHT22;4064;48.132;11.366;2023-01-19T10:50:31;1.40;99.30
8043;DHT22;4064;48.132;11.366;2023-01-19T10:52:59;1.50;98.70
8043;DHT22;4064;48.132;11.366;2023-01-19T10:57:57;1.40;98.40
8043;DHT22;4064;48.132;11.366;2023-01-19T11:00:36;1.40;98.70
8043;DHT22;4064;48.132;11.366;2023-01-19T11:05:46;1.50;98.50
8043;DHT22;4064;48.132;11.366;2023-01-19T11:08:29;1.50;98.00
8043;DHT22;4064;48.132;11.366;2023-01-19T11:11:01;1.60;98.00
8043;DHT22;4064;48.132;11.366;2023-01-19T11:13:28;1.70;98.30
8043;DHT22;4064;48.132;11.366;2023-01-19T11:15:57;1.80;98.10
8043;DHT22;4064;48.132;11.366;2023-01-19T11:18:27;1.80;97.10
8043;DHT22;4064;48.132;11.366;2023-01-19T11:20:55;1.80;97.40
8043;DHT22;4064;48.132;11.366;2023-01-19T11:25:58;2.00;98.10
8043;DHT22;4064;48.132;11.366;2023-01-19T11:30:56;2.20;97.20
8043;DHT22;4064;48.132;11.366;2023-01-19T11:33:23;2.30;97.00
8043;DHT22;4064;48.132;11.366;2023-01-19T11:35:49;2.30;96.80
8043;DHT22;4064;48.132;11.366;2023-01-19T11:38:18;2.40;96.00
8043;DHT22;4064;48.132;11.366;2023-01-19T11:40:51;2.30;95.20
8043;DHT22;4064;48.132;11.366;2023-01-19T11:43:18;2.30;95.80
8043;DHT22;4064;48.132;11.366;2023-01-19T11:45:45;2.30;95.80
8043;DHT22;4064;48.132;11.366;2023-01-19T11:48:22;2.30;95.20
8043;DHT22;4064;48.132;11.366;2023-01-19T11:50:49;2.20;95.30
8043;DHT22;4064;48.132;11.366;2023-01-19T11:53:27;2.20;95.20
8043;DHT22;4064;48.132;11.366;2023-01-19T11:55:58;2.10;95.40
8043;DHT22;4064;48.132;11.366;2023-01-19T11:58:27;2.20;95.10
8043;DHT22;4064;48.132;11.366;2023-01-19T12:01:15;2.30;94.50
8043;DHT22;4064;48.132;11.366;2023-01-19T12:03:47;2.40;94.50
8043;DHT22;4064;48.132;11.366;2023-01-19T12:06:19;2.40;94.30
8043;DHT22;4064;48.132;11.366;2023-01-19T12:08:57;2.40;94.80
8043;DHT22;4064;48.132;11.366;2023-01-19T12:11:29;2.50;94.90
8043;DHT22;4064;48.132;11.366;2023-01-19T12:13:56;2.50;94.30
8043;DHT22;4064;48.132;11.366;2023-01-19T12:16:25;2.40;93.50
8043;DHT22;4064;48.132;11.366;2023-01-19T12:19:12;2.40;93.50
8043;DHT22;4064;48.132;11.366;2023-01-19T12:21:40;2.30;94.00
8043;DHT22;4064;48.132;11.366;2023-01-19T12:24:15;2.30;93.80
8043;DHT22;4064;48.132;11.366;2023-01-19T12:29:13;2.20;93.80
8043;DHT22;4064;48.132;11.366;2023-01-19T12:31:40;2.40;94.70
8043;DHT22;4064;48.132;11.366;2023-01-19T12:36:59;2.50;93.70
8043;DHT22;4064;48.132;11.366;2023-01-19T12:42:35;2.70;93.30
8043;DHT22;4064;48.132;11.366;2023-01-19T12:45:27;2.70;92.30
8043;DHT22;4064;48.132;11.366;2023-01-19T12:47:54;2.60;91.20
8043;DHT22;4064;48.132;11.366;2023-01-19T12:50:22;2.50;90.50
8043;DHT22;4064;48.132;11.366;2023-01-19T12:53:18;2.40;90.40
8043;DHT22;4064;48.132;11.366;2023-01-19T12:55:44;2.30;90.50
8043;DHT22;4064;48.132;11.366;2023-01-19T12:58:23;2.10;90.70
8043;DHT22;4064;48.132;11.366;2023-01-19T13:01:16;2.00;90.90
8043;DHT22;4064;48.132;11.366;2023-01-19T13:09:34;2.00;91.50
8043;DHT22;4064;48.132;11.366;2023-01-19T13:14:40;2.20;91.30
8043;DHT22;4064;48.132;11.366;2023-01-19T13:17:35;2.30;90.50
8043;DHT22;4064;48.132;11.366;2023-01-19T13:20:25;2.40;90.20
8043;DHT22;4064;48.132;11.366;2023-01-19T13:23:22;2.20;87.80
8043;DHT22;4064;48.132;11.366;2023-01-19T13:26:03;2.00;88.60
8043;DHT22;4064;48.132;11.366;2023-01-19T13:28:36;1.90;87.80
8043;DHT22;4064;48.132;11.366;2023-01-19T13:31:04;1.70;88.70
8043;DHT22;4064;48.132;11.366;2023-01-19T13:33:45;1.70;90.10
8043;DHT22;4064;48.132;11.366;2023-01-19T13:36:20;1.60;89.90
8043;DHT22;4064;48.132;11.366;2023-01-19T13:38:49;1.60;90.20
8043;DHT22;4064;48.132;11.366;2023-01-19T13:41:17;1.60;90.50
8043;DHT22;4064;48.132;11.366;2023-01-19T13:43:45;1.60;90.90
8043;DHT22;4064;48.132;11.366;2023-01-19T13:46:13;1.40;90.00
8043;DHT22;4064;48.132;11.366;2023-01-19T13:48:39;1.40;89.50
8043;DHT22;4064;48.132;11.366;2023-01-19T13:51:19;1.40;90.10
8043;DHT22;4064;48.132;11.366;2023-01-19T13:53:58;1.30;89.80
8043;DHT22;4064;48.132;11.366;2023-01-19T13:56:25;1.40;90.10
8043;DHT22;4064;48.132;11.366;2023-01-19T13:59:22;1.30;90.40
8043;DHT22;4064;48.132;11.366;2023-01-19T14:01:47;1.30;90.50
8043;DHT22;4064;48.132;11.366;2023-01-19T14:04:32;1.20;90.40
8043;DHT22;4064;48.132;11.366;2023-01-19T14:07:03;1.20;90.60
8043;DHT22;4064;48.132;11.366;2023-01-19T14:09:29;1.10;90.80
8043;DHT22;4064;48.132;11.366;2023-01-19T14:12:14;1.10;91.00
8043;DHT22;4064;48.132;11.366;2023-01-19T14:14:42;1.10;91.20
8043;DHT22;4064;48.132;11.366;2023-01-19T14:19:50;1.00;91.20
8043;DHT22;4064;48.132;11.366;2023-01-19T14:22:16;1.00;91.30
8043;DHT22;4064;48.132;11.366;2023-01-19T14:24:42;0.90;91.60
8043;DHT22;4064;48.132;11.366;2023-01-19T14:27:23;0.90;91.90
8043;DHT22;4064;48.132;11.366;2023-01-19T14:29:50;0.90;92.20
8043;DHT22;4064;48.132;11.366;2023-01-19T14:32:22;0.80;91.80
8043;DHT22;4064;48.132;11.366;2023-01-19T14:35:11;0.80;92.40
8043;DHT22;4064;48.132;11.366;2023-01-19T14:37:45;0.80;92.20
8043;DHT22;4064;48.132;11.366;2023-01-19T14:40:19;0.80;92.30
8043;DHT22;4064;48.132;11.366;2023-01-19T14:42:55;0.70;92.00
8043;DHT22;4064;48.132;11.366;2023-01-19T14:45:26;0.70;92.00
8043;DHT22;4064;48.132;11.366;2023-01-19T14:50:32;0.70;91.90
8043;DHT22;4064;48.132;11.366;2023-01-19T14:53:02;0.60;91.80
8043;DHT22;4064;48.132;11.366;2023-01-19T14:55:34;0.60;91.90
8043;DHT22;4064;48.132;11.366;2023-01-19T14:58:00;0.60;91.80
8043;DHT22;4064;48.132;11.366;2023-01-19T15:00:26;0.60;92.00
8043;DHT22;4064;48.132;11.366;2023-01-19T15:02:52;0.60;92.00
8043;DHT22;4064;48.132;11.366;2023-01-19T15:05:17;0.50;92.00
8043;DHT22;4064;48.132;11.366;2023-01-19T15:07:45;0.50;92.20
8043;DHT22;4064;48.132;11.366;2023-01-19T15:10:21;0.50;92.60
8043;DHT22;4064;48.132;11.366;2023-01-19T15:12:49;0.50;92.20
8043;DHT22;4064;48.132;11.366;2023-01-19T15:15:27;0.50;92.60
8043;DHT22;4064;48.132;11.366;2023-01-19T15:17:54;0.40;92.70
8043;DHT22;4064;48.132;11.366;2023-01-19T15:20:22;0.40;92.70
8043;DHT22;4064;48.132;11.366;2023-01-19T15:22:48;0.40;93.00
8043;DHT22;4064;48.132;11.366;2023-01-19T15:25:16;0.40;93.50
8043;DHT22;4064;48.132;11.366;2023-01-19T15:27:43;0.40;93.30
8043;DHT22;4064;48.132;11.366;2023-01-19T15:30:29;0.30;93.00
8043;DHT22;4064;48.132;11.366;2023-01-19T15:32:57;0.30;92.80
8043;DHT22;4064;48.132;11.366;2023-01-19T15:35:23;0.30;93.00
8043;DHT22;4064;48.132;11.366;2023-01-19T15:37:50;0.20;92.80
8043;DHT22;4064;48.132;11.366;2023-01-19T15:40:18;0.20;93.00
8043;DHT22;4064;48.132;11.366;2023-01-19T15:42:44;0.10;93.10
8043;DHT22;4064;48.132;11.366;2023-01-19T15:47:56;0.10;92.90
8043;DHT22;4064;48.132;11.366;2023-01-19T15:50:22;0.00;93.30
8043;DHT22;4064;48.132;11.366;2023-01-19T15:52:49;0.00;93.10
8043;DHT22;4064;48.132;11.366;2023-01-19T15:55:14;0.00;93.20
8043;DHT22;4064;48.132;11.366;2023-01-19T15:57:40;0.00;93.40
8043;DHT22;4064;48.132;11.366;2023-01-19T16:00:07;0.00;93.60
8043;DHT22;4064;48.132;11.366;2023-01-19T16:02:35;-0.10;93.80
8043;DHT22;4064;48.132;11.366;2023-01-19T16:05:00;0.00;94.00
8043;DHT22;4064;48.132;11.366;2023-01-19T16:07:26;-0.10;94.00
8043;DHT22;4064;48.132;11.366;2023-01-19T16:09:52;-0.10;94.10
8043;DHT22;4064;48.132;11.366;2023-01-19T16:12:18;-0.10;94.30
8043;DHT22;4064;48.132;11.366;2023-01-19T16:14:43;-0.10;94.20
8043;DHT22;4064;48.132;11.366;2023-01-19T16:17:09;-0.20;94.00
8043;DHT22;4064;48.132;11.366;2023-01-19T16:19:35;-0.20;94.10
8043;DHT22;4064;48.132;11.366;2023-01-19T16:22:00;-0.20;94.00
8043;DHT22;4064;48.132;11.366;2023-01-19T16:24:27;-0.30;93.80
8043;DHT22;4064;48.132;11.366;2023-01-19T16:26:53;-0.30;93.70
8043;DHT22;4064;48.132;11.366;2023-01-19T16:29:18;-0.30;93.80
8043;DHT22;4064;48.132;11.366;2023-01-19T16:31:45;-0.30;93.90
8043;DHT22;4064;48.132;11.366;2023-01-19T16:34:11;-0.40;93.70
8043;DHT22;4064;48.132;11.366;2023-01-19T16:36:38;-0.40;93.70
8043;DHT22;4064;48.132;11.366;2023-01-19T16:39:12;-0.40;93.80
8043;DHT22;4064;48.132;11.366;2023-01-19T16:41:38;-0.40;93.90
8043;DHT22;4064;48.132;11.366;2023-01-19T16:44:05;-0.40;93.90
8043;DHT22;4064;48.132;11.366;2023-01-19T16:46:35;-0.40;94.10
8043;DHT22;4064;48.132;11.366;2023-01-19T16:49:09;-0.40;94.20
8043;DHT22;4064;48.132;11.366;2023-01-19T16:51:36;-0.50;94.20
8043;DHT22;4064;48.132;11.366;2023-01-19T16:54:02;-0.50;94.50
8043;DHT22;4064;48.132;11.366;2023-01-19T16:56:27;-0.60;94.60
8043;DHT22;4064;48.132;11.366;2023-01-19T16:58:54;-0.60;94.80
8043;DHT22;4064;48.132;11.366;2023-01-19T17:01:23;-0.60;94.80